Time;durP1;ratioP1;P1;durP2;ratioP2;P2;SDS_P1;SDS_P2;PMS_P1;PMS_P2;Temp;Humidity;BMP_temperature;BMP_pressure;BME280_temperature;BME280_humidity;BME280_pressure;Samples;Min_cycle;Max_cycle;Signal;HPM_P1;HPM_P2
2022/06/25 00:01:05;;;;;;;1999.90;999.90;;;16.80;99.90;;;;;;5049731;28;20119;-75
2022/06/25 00:03:31;;;;;;;1999.90;999.90;;;16.90;99.90;;;;;;5046563;28;20043;-76
2022/06/25 00:05:56;;;;;;;1999.90;999.90;;;16.90;99.90;;;;;;5046690;28;20048;-75
2022/06/25 00:08:23;;;;;;;1999.90;999.90;;;16.90;99.90;;;;;;5032244;28;20513;-75
2022/06/25 00:10:49;;;;;;;1999.90;999.90;;;16.80;99.90;;;;;;5050774;28;20049;-75
2022/06/25 00:13:14;;;;;;;1999.90;999.90;;;16.90;99.90;;;;;;5045365;28;20376;-76
2022/06/25 00:15:40;;;;;;;1999.90;999.90;;;16.90;99.90;;;;;;5047748;28;20502;-75
2022/06/25 00:18:06;;;;;;;1999.90;999.90;;;16.90;99.90;;;;;;5044722;28;20037;-75
2022/06/25 00:20:32;;;;;;;1999.90;999.90;;;16.90;99.90;;;;;;5049225;28;20040;-75
2022/06/25 00:22:58;;;;;;;1999.90;999.90;;;16.90;99.90;;;;;;5038515;28;20045;-75
2022/06/25 00:25:23;;;;;;;1999.90;999.90;;;16.90;99.90;;;;;;5036462;28;20489;-75
2022/06/25 00:27:49;;;;;;;1999.90;999.90;;;16.80;99.90;;;;;;5033067;28;20052;-75
2022/06/25 00:30:14;;;;;;;1999.90;999.90;;;16.80;99.90;;;;;;5030285;28;20407;-75
2022/06/25 00:32:40;;;;;;;1999.90;999.90;;;16.80;99.90;;;;;;5028938;28;20120;-76
2022/06/25 00:35:06;;;;;;;1999.90;999.90;;;16.70;99.90;;;;;;5031038;28;20168;-75
2022/06/25 00:37:32;;;;;;;1999.90;999.90;;;16.70;99.90;;;;;;5049089;28;20037;-75
2022/06/25 00:39:57;;;;;;;1999.90;999.90;;;16.60;99.90;;;;;;5064243;28;20048;-75
2022/06/25 00:42:23;;;;;;;1999.90;999.90;;;16.60;99.90;;;;;;5047378;28;20103;-75
2022/06/25 00:44:49;;;;;;;1999.90;999.90;;;16.60;99.90;;;;;;5046589;28;20124;-75
2022/06/25 00:47:15;;;;;;;1999.90;999.90;;;16.50;99.90;;;;;;5042845;28;20045;-75
2022/06/25 00:49:42;;;;;;;1999.90;999.90;;;16.50;99.90;;;;;;5031328;28;20099;-75
2022/06/25 00:52:13;;;;;;;1999.90;999.90;;;16.50;99.90;;;;;;5030261;28;20453;-76
2022/06/25 00:54:45;;;;;;;1999.90;999.90;;;16.50;99.90;;;;;;5058979;28;20127;-75
2022/06/25 00:57:16;;;;;;;1999.90;999.90;;;16.50;99.90;;;;;;5047825;28;20041;-75
2022/06/25 00:59:48;;;;;;;1999.90;999.90;;;16.50;99.90;;;;;;5079161;28;20127;-75
2022/06/25 01:02:14;;;;;;;1999.90;999.90;;;16.50;99.90;;;;;;5053971;28;20139;-75
2022/06/25 01:04:41;;;;;;;1999.90;999.90;;;16.50;99.90;;;;;;5038150;28;20131;-75
2022/06/25 01:07:08;;;;;;;1999.90;999.90;;;16.50;99.90;;;;;;5062907;28;20132;-75
2022/06/25 01:09:34;;;;;;;1999.90;999.90;;;16.50;99.90;;;;;;5079470;28;20128;-75
2022/06/25 01:12:00;;;;;;;1999.90;999.90;;;16.40;99.90;;;;;;5046053;28;20041;-75
2022/06/25 01:14:25;;;;;;;1999.90;999.90;;;16.40;99.90;;;;;;5063919;28;20047;-75
2022/06/25 01:16:51;;;;;;;1999.90;999.90;;;16.40;99.90;;;;;;5036015;28;20064;-76
2022/06/25 01:19:17;;;;;;;1999.90;999.90;;;16.30;99.90;;;;;;5032378;28;20118;-76
2022/06/25 01:21:43;;;;;;;1999.90;999.90;;;16.30;99.90;;;;;;5045552;28;20044;-76
2022/06/25 01:24:08;;;;;;;1999.90;999.90;;;16.20;99.90;;;;;;5049910;28;20132;-75
2022/06/25 01:26:39;;;;;;;1999.90;999.90;;;16.20;99.90;;;;;;5029542;28;20442;-75
2022/06/25 01:29:05;;;;;;;1999.90;999.90;;;16.20;99.90;;;;;;5063159;28;20033;-75
2022/06/25 01:31:31;;;;;;;1999.90;999.90;;;16.30;99.90;;;;;;5058735;28;20051;-75
2022/06/25 01:33:59;;;;;;;1999.90;999.90;;;16.30;99.90;;;;;;5064047;28;20033;-75
2022/06/25 01:36:25;;;;;;;1999.90;999.90;;;16.30;99.90;;;;;;5046249;28;20465;-75
2022/06/25 01:38:51;;;;;;;1999.90;999.90;;;16.30;99.90;;;;;;5034596;28;20044;-75
2022/06/25 01:41:17;;;;;;;1999.90;999.90;;;16.30;99.90;;;;;;5063800;28;20170;-75
2022/06/25 01:43:43;;;;;;;1999.90;999.90;;;16.30;99.90;;;;;;5065494;28;20106;-75
2022/06/25 01:46:09;;;;;;;1999.90;999.90;;;16.30;99.90;;;;;;5049649;28;20498;-75
2022/06/25 01:48:35;;;;;;;1999.90;999.90;;;16.30;99.90;;;;;;5082160;28;20052;-75
2022/06/25 01:51:01;;;;;;;1999.90;999.90;;;16.40;99.90;;;;;;5047137;28;20505;-75
2022/06/25 01:53:27;;;;;;;1999.90;999.90;;;16.40;99.90;;;;;;5065666;28;20037;-75
2022/06/25 01:55:53;;;;;;;1999.90;999.90;;;16.40;99.90;;;;;;5048568;28;20041;-75
2022/06/25 01:58:19;;;;;;;1999.90;999.90;;;16.40;99.90;;;;;;5050137;28;20051;-75
2022/06/25 02:00:46;;;;;;;1999.90;999.90;;;16.30;99.90;;;;;;5047769;28;20407;-75
2022/06/25 02:03:13;;;;;;;1999.90;999.90;;;16.30;99.90;;;;;;5066431;28;20032;-75
2022/06/25 02:05:57;;;;;;;1999.90;999.90;;;16.30;99.90;;;;;;5065496;28;20052;-75
2022/06/25 02:08:31;;;;;;;1999.90;999.90;;;16.30;99.90;;;;;;5047373;28;20040;-75
2022/06/25 02:10:58;;;;;;;1999.90;999.90;;;16.30;99.90;;;;;;5066094;28;20433;-75
2022/06/25 02:13:23;;;;;;;1999.90;999.90;;;16.30;99.90;;;;;;5049129;28;20036;-75
2022/06/25 02:15:50;;;;;;;1999.90;999.90;;;16.30;99.90;;;;;;5058168;28;20039;-75
2022/06/25 02:18:16;;;;;;;1999.90;999.90;;;16.20;99.90;;;;;;5063735;28;20040;-75
2022/06/25 02:20:42;;;;;;;1999.90;999.90;;;16.20;99.90;;;;;;5065088;28;20040;-75
2022/06/25 02:23:09;;;;;;;1999.90;999.90;;;16.20;99.90;;;;;;5049194;28;20387;-75
2022/06/25 02:25:34;;;;;;;1999.90;999.90;;;16.20;99.90;;;;;;5064891;28;20093;-75
2022/06/25 02:28:00;;;;;;;1999.90;999.90;;;16.20;99.90;;;;;;5058072;28;20041;-75
2022/06/25 02:30:26;;;;;;;1999.90;999.90;;;16.10;99.90;;;;;;5049851;28;20039;-75
2022/06/25 02:32:52;;;;;;;1999.90;999.90;;;16.10;99.90;;;;;;5046654;28;20571;-75
2022/06/25 02:35:17;;;;;;;1999.90;999.90;;;16.00;99.90;;;;;;5063074;28;20040;-75
2022/06/25 02:37:43;;;;;;;1999.90;999.90;;;16.00;99.90;;;;;;5062622;28;20044;-75
2022/06/25 02:40:09;;;;;;;1999.90;999.90;;;16.00;99.90;;;;;;5038985;28;20438;-75
2022/06/25 02:42:39;;;;;;;1999.90;999.90;;;15.90;99.90;;;;;;5055624;28;20498;-75
2022/06/25 02:45:06;;;;;;;1999.90;999.90;;;15.90;99.90;;;;;;5055788;28;20037;-75
2022/06/25 02:47:32;;;;;;;1999.90;999.90;;;15.90;99.90;;;;;;5065043;28;20079;-75
2022/06/25 02:49:58;;;;;;;1999.90;999.90;;;15.90;99.90;;;;;;5044442;28;20453;-75
2022/06/25 02:52:24;;;;;;;1999.90;999.90;;;15.90;99.90;;;;;;5047784;28;20093;-75
2022/06/25 02:54:50;;;;;;;1999.90;999.90;;;15.90;99.90;;;;;;5048862;28;20037;-75
2022/06/25 03:00:00;;;;;;;1999.90;999.90;;;15.80;99.90;;;;;;5092862;28;20510;-75
2022/06/25 03:02:27;;;;;;;1999.90;999.90;;;15.80;99.90;;;;;;5064217;28;20093;-75
2022/06/25 03:04:52;;;;;;;1999.90;999.90;;;15.80;99.90;;;;;;5066308;28;20083;-75
2022/06/25 03:07:18;;;;;;;1999.90;999.90;;;15.80;99.90;;;;;;5048726;28;20075;-75
2022/06/25 03:09:44;;;;;;;1999.90;999.90;;;15.80;99.90;;;;;;5071843;28;20504;-75
2022/06/25 03:12:09;;;;;;;1999.90;999.90;;;15.80;99.90;;;;;;5063201;28;20476;-75
2022/06/25 03:14:35;;;;;;;1999.90;999.90;;;15.80;99.90;;;;;;5059736;28;20041;-75
2022/06/25 03:17:01;;;;;;;1999.90;999.90;;;15.70;99.90;;;;;;5043742;28;20055;-75
2022/06/25 03:19:26;;;;;;;1999.90;999.90;;;15.70;99.90;;;;;;5058094;28;20129;-75
2022/06/25 03:21:52;;;;;;;1999.90;999.90;;;15.70;99.90;;;;;;5065821;28;20127;-76
2022/06/25 03:24:18;;;;;;;1999.90;999.90;;;15.70;99.90;;;;;;5049855;28;20036;-75
2022/06/25 03:26:43;;;;;;;1999.90;999.90;;;15.70;99.90;;;;;;5060967;28;20083;-76
2022/06/25 03:29:09;;;;;;;1999.90;999.90;;;15.70;99.90;;;;;;5064056;28;20076;-76
2022/06/25 03:31:35;;;;;;;1999.90;999.90;;;15.60;99.90;;;;;;5063750;28;20079;-75
2022/06/25 03:34:01;;;;;;;1999.90;999.90;;;15.60;99.90;;;;;;5066781;28;20135;-76
2022/06/25 03:36:26;;;;;;;1999.90;999.90;;;15.60;99.90;;;;;;5064578;28;20058;-75
2022/06/25 03:38:52;;;;;;;1999.90;999.90;;;15.70;99.90;;;;;;5048443;28;20040;-76
2022/06/25 03:41:33;;;;;;;1999.90;999.90;;;15.70;99.90;;;;;;5062560;28;20063;-76
2022/06/25 03:43:59;;;;;;;1999.90;999.90;;;15.70;99.90;;;;;;5073389;28;20036;-75
2022/06/25 03:46:25;;;;;;;1999.90;999.90;;;15.70;99.90;;;;;;5065467;28;20041;-76
2022/06/25 03:48:52;;;;;;;1999.90;999.90;;;15.70;99.90;;;;;;5075506;28;20517;-76
2022/06/25 03:51:18;;;;;;;1999.90;999.90;;;15.70;99.90;;;;;;5061297;28;20033;-75
2022/06/25 03:53:43;;;;;;;1999.90;999.90;;;15.70;99.90;;;;;;5066537;28;20044;-75
2022/06/25 03:56:09;;;;;;;1999.90;999.90;;;15.70;99.90;;;;;;5060699;28;20525;-76
2022/06/25 03:58:35;;;;;;;1999.90;999.90;;;15.80;99.90;;;;;;5066188;28;20592;-75
2022/06/25 04:01:01;;;;;;;1999.90;999.90;;;15.80;99.90;;;;;;5062484;28;20495;-76
2022/06/25 04:03:26;;;;;;;1999.90;999.90;;;15.80;99.90;;;;;;5052067;28;20036;-75
2022/06/25 04:05:52;;;;;;;1999.90;999.90;;;15.90;99.90;;;;;;5069254;28;20041;-76
2022/06/25 04:08:18;;;;;;;1999.90;999.90;;;15.90;99.90;;;;;;5065438;28;20040;-75
2022/06/25 04:10:43;;;;;;;1999.90;999.90;;;15.90;99.90;;;;;;5068318;28;20043;-75
2022/06/25 04:13:10;;;;;;;1999.90;999.90;;;15.90;99.90;;;;;;5067226;28;20689;-75
2022/06/25 04:15:36;;;;;;;1999.90;999.90;;;16.00;99.90;;;;;;5051571;28;20044;-75
2022/06/25 04:18:03;;;;;;;1999.90;999.90;;;16.00;99.90;;;;;;5051258;28;20790;-75
2022/06/25 04:20:29;;;;;;;1999.90;999.90;;;16.10;99.90;;;;;;5052559;28;20555;-75
2022/06/25 04:22:54;;;;;;;1999.90;999.90;;;16.10;99.90;;;;;;5052038;28;20081;-75
2022/06/25 04:25:20;;;;;;;1999.90;999.90;;;16.20;99.90;;;;;;5069238;28;20173;-75
2022/06/25 04:30:30;;;;;;;1999.90;999.90;;;16.30;99.90;;;;;;5069047;28;20036;-75
2022/06/25 04:32:56;;;;;;;1999.90;999.90;;;16.40;99.90;;;;;;5049713;28;20398;-75
2022/06/25 04:35:22;;;;;;;1999.90;999.90;;;16.50;99.90;;;;;;5051698;28;20177;-75
2022/06/25 04:37:47;;;;;;;1999.90;999.90;;;16.70;99.90;;;;;;5051944;28;20040;-75
2022/06/25 04:40:13;;;;;;;1999.90;999.90;;;16.90;99.90;;;;;;5051676;28;20061;-75
2022/06/25 04:42:39;;;;;;;1999.90;999.90;;;17.00;99.90;;;;;;5050485;28;20472;-75
2022/06/25 04:45:04;;;;;;;1999.90;999.90;;;16.90;99.90;;;;;;5050999;28;20047;-75
2022/06/25 04:47:30;;;;;;;1999.90;999.90;;;16.90;99.90;;;;;;5067685;28;20090;-75
2022/06/25 04:49:56;;;;;;;1999.90;999.90;;;16.90;99.90;;;;;;5072710;28;20040;-75
2022/06/25 04:52:21;;;;;;;1999.90;999.90;;;16.90;99.90;;;;;;5067087;28;20032;-75
2022/06/25 04:54:47;;;;;;;1999.90;999.90;;;16.90;99.90;;;;;;5048166;28;20044;-75
2022/06/25 04:57:13;;;;;;;1999.90;999.90;;;17.00;99.90;;;;;;5067852;28;20048;-75
2022/06/25 04:59:38;;;;;;;1999.90;999.90;;;17.00;99.90;;;;;;5059219;28;20120;-75
2022/06/25 05:02:04;;;;;;;1999.90;999.90;;;17.10;99.90;;;;;;5050100;28;20040;-75
2022/06/25 05:04:30;;;;;;;1999.90;999.90;;;17.20;99.90;;;;;;5066552;28;20418;-75
2022/06/25 05:06:55;;;;;;;1999.90;999.90;;;17.30;99.90;;;;;;5050579;28;20033;-75
2022/06/25 05:09:21;;;;;;;1999.90;999.90;;;17.40;99.90;;;;;;5060575;28;20558;-75
2022/06/25 05:11:47;;;;;;;1999.90;999.90;;;17.60;99.90;;;;;;5062495;28;20044;-75
2022/06/25 05:14:12;;;;;;;1999.90;999.90;;;18.10;99.90;;;;;;5050193;28;20044;-75
2022/06/25 05:16:38;;;;;;;1999.90;999.90;;;18.60;99.90;;;;;;5065639;28;20072;-75
2022/06/25 05:19:04;;;;;;;1999.90;999.90;;;19.10;99.90;;;;;;5050689;28;20053;-75
2022/06/25 05:21:29;;;;;;;1999.90;999.90;;;19.80;99.90;;;;;;5066428;28;20055;-75
2022/06/25 05:23:55;;;;;;;1999.90;999.90;;;19.90;99.90;;;;;;5062044;28;20613;-75
2022/06/25 05:26:20;;;;;;;1999.90;999.90;;;19.80;99.90;;;;;;5064737;28;20076;-75
2022/06/25 05:28:46;;;;;;;1999.90;999.90;;;19.50;99.90;;;;;;5068058;28;20127;-75
2022/06/25 05:31:12;;;;;;;1999.90;999.90;;;19.40;99.90;;;;;;5064709;28;20498;-75
2022/06/25 05:33:37;;;;;;;1999.90;999.90;;;19.10;99.90;;;;;;5052856;28;20048;-75
2022/06/25 05:36:03;;;;;;;1999.90;999.90;;;19.00;99.90;;;;;;5065759;28;20619;-75
2022/06/25 05:38:29;;;;;;;1999.90;999.90;;;18.90;99.90;;;;;;5046568;28;20497;-74
2022/06/25 05:40:55;;;;;;;1999.90;999.90;;;18.90;99.90;;;;;;5049957;28;20048;-75
2022/06/25 05:43:22;;;;;;;1999.90;999.90;;;18.80;99.90;;;;;;5067022;28;20525;-75
2022/06/25 05:45:48;;;;;;;1999.90;999.90;;;18.80;99.90;;;;;;5057919;28;20041;-74
2022/06/25 05:48:13;;;;;;;1999.90;999.90;;;18.80;99.90;;;;;;5066291;28;20444;-75
2022/06/25 05:50:39;;;;;;;1999.90;999.90;;;18.90;99.90;;;;;;5049775;28;20060;-75
2022/06/25 05:53:04;;;;;;;1999.90;999.90;;;19.00;99.90;;;;;;5049937;28;20040;-75
2022/06/25 05:55:30;;;;;;;1999.90;999.90;;;19.10;99.90;;;;;;5065070;28;20040;-75
2022/06/25 05:57:56;;;;;;;1999.90;999.90;;;19.10;99.90;;;;;;5067820;28;20032;-75
2022/06/25 06:00:21;;;;;;;1999.90;999.90;;;19.20;99.90;;;;;;5048906;28;20459;-75
2022/06/25 06:02:47;;;;;;;1999.90;999.90;;;19.50;99.90;;;;;;5069892;28;20048;-75
2022/06/25 06:05:13;;;;;;;1999.90;999.90;;;19.90;99.90;;;;;;5065312;28;20172;-74
2022/06/25 06:07:38;;;;;;;1999.90;999.90;;;20.50;99.90;;;;;;5047677;28;20079;-75
2022/06/25 06:10:05;;;;;;;1999.90;999.90;;;21.30;99.90;;;;;;5066179;28;20563;-75
2022/06/25 06:12:31;;;;;;;1999.90;999.90;;;22.30;99.90;;;;;;5050408;28;20028;-75
2022/06/25 06:14:56;;;;;;;1999.90;999.90;;;22.80;99.90;;;;;;5049356;28;20047;-75
2022/06/25 06:17:22;;;;;;;1999.90;999.90;;;23.30;99.90;;;;;;5065505;28;20044;-75
2022/06/25 06:19:48;;;;;;;1999.90;999.90;;;23.70;99.90;;;;;;5049586;28;20426;-75
2022/06/25 06:22:13;;;;;;;1999.90;999.90;;;24.30;99.90;;;;;;5048502;28;20048;-75
2022/06/25 06:24:39;;;;;;;1999.90;999.90;;;24.60;99.90;;;;;;5066993;28;20048;-75
2022/06/25 06:27:05;;;;;;;1999.90;999.90;;;24.30;99.90;;;;;;5048969;28;20509;-75
2022/06/25 06:29:30;;;;;;;1999.90;999.90;;;24.10;99.90;;;;;;5048387;28;20397;-76
2022/06/25 06:31:56;;;;;;;1999.90;999.90;;;24.10;99.90;;;;;;5048377;28;20040;-75
2022/06/25 06:34:22;;;;;;;1999.90;999.90;;;24.20;99.90;;;;;;5066010;28;20141;-75
2022/06/25 06:36:47;;;;;;;1999.90;999.90;;;24.40;99.90;;;;;;5049637;28;20079;-76
2022/06/25 06:39:13;;;;;;;1999.90;999.90;;;24.60;99.90;;;;;;5064823;28;20054;-76
2022/06/25 06:41:39;;;;;;;1999.90;999.90;;;24.60;99.90;;;;;;5051782;28;20056;-75
2022/06/25 06:44:05;;;;;;;1999.90;999.90;;;24.70;99.90;;;;;;5084327;28;20041;-75
2022/06/25 06:46:31;;;;;;;1999.90;999.90;;;25.00;99.90;;;;;;5053581;28;20067;-75
2022/06/25 06:48:56;;;;;;;1999.90;999.90;;;25.00;99.90;;;;;;5063747;28;20549;-75
2022/06/25 06:51:22;;;;;;;1999.90;999.90;;;25.20;99.90;;;;;;5083297;28;20036;-76
2022/06/25 06:53:47;;;;;;;1999.90;999.90;;;25.30;99.90;;;;;;5069330;28;20040;-76
2022/06/25 06:56:13;;;;;;;1999.90;999.90;;;25.70;99.90;;;;;;5085932;28;20504;-76
2022/06/25 06:58:39;;;;;;;1999.90;999.90;;;25.90;99.90;;;;;;5050594;28;20119;-76
2022/06/25 07:01:04;;;;;;;1999.90;999.90;;;26.00;99.90;;;;;;5067216;28;20032;-75
2022/06/25 07:03:30;;;;;;;1999.90;999.90;;;25.80;99.90;;;;;;5068556;28;20071;-75
2022/06/25 07:05:56;;;;;;;1999.90;999.90;;;25.70;99.90;;;;;;5079996;28;20040;-75
2022/06/25 07:08:22;;;;;;;1999.90;999.90;;;25.70;99.90;;;;;;5074460;28;20512;-76
2022/06/25 07:10:48;;;;;;;1999.90;999.90;;;25.60;99.90;;;;;;5085621;28;20036;-76
2022/06/25 07:13:13;;;;;;;1999.90;999.90;;;25.50;99.90;;;;;;5039647;28;20036;-76
2022/06/25 07:15:39;;;;;;;1999.90;999.90;;;25.80;99.90;;;;;;5066299;28;20036;-76
2022/06/25 07:18:05;;;;;;;1999.90;999.90;;;26.00;99.90;;;;;;5072842;28;20104;-76
2022/06/25 07:20:31;;;;;;;1999.90;999.90;;;26.20;99.90;;;;;;5057421;28;20035;-75
2022/06/25 07:22:57;;;;;;;1999.90;999.90;;;26.20;99.90;;;;;;5051417;28;20509;-76
2022/06/25 07:25:22;;;;;;;1999.90;999.90;;;25.90;99.90;;;;;;5068218;28;20517;-76
2022/06/25 07:27:48;;;;;;;1999.90;999.90;;;25.80;99.90;;;;;;5085873;28;20540;-76
2022/06/25 07:30:14;;;;;;;1999.90;999.90;;;25.70;99.90;;;;;;5052068;28;20036;-75
2022/06/25 07:32:40;;;;;;;1999.90;999.90;;;25.60;99.90;;;;;;5103833;28;20130;-76
2022/06/25 07:35:06;;;;;;;1999.90;999.90;;;25.70;99.90;;;;;;5061918;28;20143;-75
2022/06/25 07:37:32;;;;;;;1999.90;999.90;;;26.10;99.90;;;;;;5105889;28;20079;-75
2022/06/25 07:39:58;;;;;;;1999.90;999.90;;;26.20;99.90;;;;;;5072752;28;20048;-76
2022/06/25 07:42:23;;;;;;;1999.90;999.90;;;26.50;99.90;;;;;;5089047;28;20066;-76
2022/06/25 07:44:49;;;;;;;1999.90;999.90;;;26.90;99.90;;;;;;5092236;28;20043;-76
2022/06/25 07:47:15;;;;;;;1999.90;999.90;;;26.80;99.90;;;;;;5074396;28;20036;-76
2022/06/25 07:52:26;;;;;;;1999.90;999.90;;;26.70;99.90;;;;;;5072578;28;20043;-76
2022/06/25 07:54:51;;;;;;;1999.90;999.90;;;26.90;99.90;;;;;;5104093;28;20133;-76
2022/06/25 07:57:17;;;;;;;1999.90;999.90;;;26.80;99.90;;;;;;5054821;28;20090;-76
2022/06/25 07:59:43;;;;;;;1999.90;999.90;;;26.70;99.90;;;;;;5056928;28;20036;-76
2022/06/25 08:02:09;;;;;;;1999.90;999.90;;;26.70;99.90;;;;;;5089602;28;20527;-75
2022/06/25 08:04:35;;;;;;;1999.90;999.90;;;26.60;99.90;;;;;;5086064;28;20071;-76
2022/06/25 08:07:00;;;;;;;1999.90;999.90;;;26.70;99.90;;;;;;5090265;28;21700;-76
2022/06/25 08:09:26;;;;;;;1999.90;999.90;;;26.50;99.90;;;;;;5073804;28;20494;-76
2022/06/25 08:11:52;;;;;;;1999.90;999.90;;;26.40;99.90;;;;;;5053562;28;20032;-76
2022/06/25 08:14:17;;;;;;;1999.90;999.90;;;26.40;99.90;;;;;;5104092;28;20113;-77
2022/06/25 08:16:43;;;;;;;1999.90;999.90;;;26.70;99.90;;;;;;5053998;28;20081;-76
2022/06/25 08:19:09;;;;;;;1999.90;999.90;;;26.70;99.90;;;;;;5088614;28;20096;-76
2022/06/25 08:21:35;;;;;;;1999.90;999.90;;;26.60;99.90;;;;;;5074630;28;20040;-76
2022/06/25 08:24:00;;;;;;;1999.90;999.90;;;26.40;99.90;;;;;;5057218;28;20441;-76
2022/06/25 08:26:26;;;;;;;1999.90;999.90;;;25.70;99.90;;;;;;5066453;28;20044;-75
2022/06/25 08:28:52;;;;;;;1999.90;999.90;;;25.40;99.90;;;;;;5087880;28;20039;-75
2022/06/25 08:31:17;;;;;;;1999.90;999.90;;;25.50;99.90;;;;;;5080532;28;20040;-76
2022/06/25 08:33:43;;;;;;;1999.90;999.90;;;25.10;99.90;;;;;;5070058;28;20067;-76
2022/06/25 08:36:09;;;;;;;1999.90;999.90;;;24.90;99.90;;;;;;5076429;28;20043;-75
2022/06/25 08:38:35;;;;;;;1999.90;999.90;;;24.60;99.90;;;;;;5052753;28;20044;-76
2022/06/25 08:41:02;;;;;;;1999.90;999.90;;;24.50;99.90;;;;;;5066299;28;20437;-75
2022/06/25 08:43:29;;;;;;;1999.90;999.90;;;24.20;99.90;;;;;;5097517;28;20291;-76
2022/06/25 08:45:55;;;;;;;1999.90;999.90;;;23.90;99.90;;;;;;5061084;28;20587;-76
2022/06/25 08:48:23;;;;;;;1999.90;999.90;;;23.80;99.90;;;;;;5051472;28;20044;-76
2022/06/25 08:50:50;;;;;;;1999.90;999.90;;;24.20;99.90;;;;;;5077173;28;20033;-76
2022/06/25 08:53:18;;;;;;;1999.90;999.90;;;24.60;99.90;;;;;;5061852;28;20043;-75
2022/06/25 08:55:45;;;;;;;1999.90;999.90;;;25.30;99.90;;;;;;5083635;28;20112;-75
2022/06/25 08:58:12;;;;;;;1999.90;999.90;;;25.90;99.90;;;;;;5048452;28;20251;-76
2022/06/25 09:00:40;;;;;;;1999.90;999.90;;;26.20;99.90;;;;;;5048915;28;20036;-75
2022/06/25 09:03:07;;;;;;;1999.90;999.90;;;26.50;99.90;;;;;;5040127;28;20054;-76
2022/06/25 09:05:39;;;;;;;1999.90;999.90;;;26.70;99.90;;;;;;5064932;28;20043;-75
2022/06/25 09:08:07;;;;;;;1999.90;999.90;;;26.90;99.90;;;;;;5099277;27;20051;-75
2022/06/25 09:10:34;;;;;;;1999.90;999.90;;;26.80;99.90;;;;;;5065877;28;20496;-75
2022/06/25 09:13:10;;;;;;;1999.90;999.90;;;26.40;98.60;;;;;;5061200;28;20036;-76
2022/06/25 09:15:39;;;;;;;1999.90;999.90;;;25.70;99.90;;;;;;5092634;28;20056;-75
2022/06/25 09:18:10;;;;;;;1999.90;999.90;;;25.10;99.90;;;;;;5066735;28;20044;-75
2022/06/25 09:21:01;;;;;;;1999.90;999.90;;;24.70;99.90;;;;;;5063761;28;20172;-75
2022/06/25 09:23:29;;;;;;;1999.90;999.90;;;24.70;99.90;;;;;;5071633;28;20043;-76
2022/06/25 09:26:08;;;;;;;1999.90;999.90;;;25.30;99.90;;;;;;5066202;28;20036;-76
2022/06/25 09:28:46;;;;;;;1999.90;999.90;;;25.80;99.90;;;;;;5104337;27;20439;-75
2022/06/25 09:31:12;;;;;;;1999.90;999.90;;;25.90;99.90;;;;;;5100036;27;20067;-75
2022/06/25 09:33:40;;;;;;;1999.90;999.90;;;26.20;99.90;;;;;;5081858;28;20067;-75
2022/06/25 09:36:09;;;;;;;1999.90;999.90;;;26.20;99.90;;;;;;5067324;28;20036;-75
2022/06/25 09:38:47;;;;;;;1999.90;999.90;;;25.90;99.90;;;;;;5066738;28;20028;-76
2022/06/25 09:41:13;;;;;;;1999.90;999.90;;;26.20;99.90;;;;;;5094464;27;20048;-76
2022/06/25 09:43:41;;;;;;;1999.90;999.90;;;26.60;99.90;;;;;;5051477;28;20097;-75
2022/06/25 09:46:07;;;;;;;1999.90;999.90;;;27.00;99.90;;;;;;5100660;27;21479;-75
2022/06/25 09:48:35;;;;;;;1999.90;999.90;;;26.90;98.10;;;;;;5044726;28;20097;-75
2022/06/25 09:51:19;;;;;;;1999.90;999.90;;;26.70;99.90;;;;;;5052235;28;20073;-76
2022/06/25 09:53:53;;;;;;;1999.90;999.90;;;26.80;99.50;;;;;;5081632;28;20035;-75
2022/06/25 09:56:24;;;;;;;1999.90;999.90;;;26.90;99.70;;;;;;5068382;28;20078;-75
2022/06/25 09:58:50;;;;;;;1999.90;999.90;;;27.10;97.40;;;;;;5044569;28;20506;-76
2022/06/25 10:01:18;;;;;;;1999.90;999.90;;;27.20;98.70;;;;;;5064233;28;20054;-76
2022/06/25 10:03:45;;;;;;;1999.90;999.90;;;27.00;99.70;;;;;;5088631;28;20503;-75
2022/06/25 10:06:16;;;;;;;1999.90;999.90;;;26.40;97.50;;;;;;5054560;28;20043;-75
2022/06/25 10:08:47;;;;;;;1999.90;999.90;;;25.80;97.10;;;;;;5111952;27;20084;-75
2022/06/25 10:11:13;;;;;;;1999.90;999.90;;;25.50;98.70;;;;;;5110418;27;20401;-75
2022/06/25 10:13:41;;;;;;;1999.90;999.90;;;25.70;99.90;;;;;;5110040;27;20066;-77
2022/06/25 10:16:07;;;;;;;1999.90;999.90;;;26.00;99.30;;;;;;5074128;28;20075;-75
2022/06/25 10:18:36;;;;;;;1999.90;999.90;;;26.00;98.20;;;;;;5079619;28;20051;-76
2022/06/25 10:21:02;;;;;;;1999.90;999.90;;;25.70;98.20;;;;;;5042931;28;20092;-75
2022/06/25 10:23:28;;;;;;;1999.90;999.90;;;25.60;99.40;;;;;;5081209;28;20461;-75
2022/06/25 10:25:53;;;;;;;1999.90;999.90;;;25.50;99.40;;;;;;5077379;28;20122;-76
2022/06/25 10:28:28;;;;;;;1999.90;999.90;;;25.80;99.10;;;;;;5049040;28;20425;-76
2022/06/25 10:30:57;;;;;;;1999.90;999.90;;;26.30;99.20;;;;;;5060796;28;20099;-76
2022/06/25 10:33:28;;;;;;;1999.90;999.90;;;26.40;99.90;;;;;;5066782;28;20040;-75
2022/06/25 10:35:59;;;;;;;1999.90;999.90;;;26.30;99.90;;;;;;5094935;28;20036;-75
2022/06/25 10:38:27;;;;;;;1999.90;999.90;;;26.50;99.60;;;;;;5084770;28;20105;-75
2022/06/25 10:42:58;;;;;;;1999.90;999.90;;;26.80;99.90;;;;;;5065633;28;20063;-75
2022/06/25 10:43:54;;;;;;;1999.90;999.90;;;26.90;97.80;;;;;;5103873;27;20056;-76
2022/06/25 10:46:30;;;;;;;1999.90;999.90;;;26.70;96.80;;;;;;5076441;28;20469;-73
2022/06/25 10:49:07;;;;;;;1999.90;999.90;;;26.30;97.50;;;;;;5046575;28;20147;-74
2022/06/25 10:51:51;;;;;;;1999.90;999.90;;;25.90;95.90;;;;;;5065697;28;20087;-74
2022/06/25 10:54:23;;;;;;;1999.90;999.90;;;25.40;97.80;;;;;;5096092;28;20028;-73
2022/06/25 10:56:51;;;;;;;1999.90;999.90;;;25.00;97.40;;;;;;5070293;28;20036;-75
2022/06/25 10:59:32;;;;;;;1999.90;999.90;;;24.60;97.50;;;;;;5052152;28;20083;-75
2022/06/25 11:01:59;;;;;;;1999.90;999.90;;;24.30;98.80;;;;;;5083326;28;20199;-75
2022/06/25 11:04:26;;;;;;;1999.90;999.90;;;24.00;99.10;;;;;;5061655;28;20040;-75
2022/06/25 11:06:52;;;;;;;1999.90;999.90;;;23.70;99.20;;;;;;5084932;28;20040;-75
2022/06/25 11:09:19;;;;;;;1999.90;999.90;;;23.50;99.70;;;;;;5066513;28;20043;-75
2022/06/25 11:11:48;;;;;;;1999.90;999.90;;;23.30;99.90;;;;;;5098485;28;20040;-75
2022/06/25 11:14:22;;;;;;;1999.90;999.90;;;23.30;99.90;;;;;;5066654;28;20089;-75
2022/06/25 11:16:49;;;;;;;1999.90;999.90;;;23.30;99.90;;;;;;5056034;28;20052;-75
2022/06/25 11:19:15;;;;;;;1999.90;999.90;;;23.50;99.90;;;;;;5055860;28;20135;-75
2022/06/25 11:21:43;;;;;;;1999.90;999.90;;;23.80;99.90;;;;;;5059841;28;20043;-75
2022/06/25 11:24:12;;;;;;;1999.90;999.90;;;24.60;99.90;;;;;;5055570;28;20371;-75
2022/06/25 11:29:31;;;;;;;1999.90;999.90;;;26.00;99.90;;;;;;5068781;28;20047;-75
2022/06/25 11:31:57;;;;;;;1999.90;999.90;;;26.60;99.90;;;;;;5063852;28;20112;-75
2022/06/25 11:34:25;;;;;;;1999.90;999.90;;;27.20;99.90;;;;;;5080527;28;20512;-76
2022/06/25 11:37:02;;;;;;;1999.90;999.90;;;27.40;94.10;;;;;;5081166;28;20047;-75
2022/06/25 11:39:29;;;;;;;1999.90;999.90;;;27.20;93.90;;;;;;5061811;28;20140;-75
2022/06/25 11:41:56;;;;;;;1999.90;999.90;;;26.80;93.90;;;;;;5080766;28;20496;-75
2022/06/25 11:44:22;;;;;;;1999.90;999.90;;;26.50;94.70;;;;;;5063380;28;20485;-76
2022/06/25 11:46:48;;;;;;;1999.90;999.90;;;26.20;95.30;;;;;;5064552;28;20047;-76
2022/06/25 11:49:14;;;;;;;1999.90;999.90;;;25.90;94.80;;;;;;5049680;28;20471;-76
2022/06/25 11:51:48;;;;;;;1999.90;999.90;;;25.60;95.80;;;;;;5071263;28;20401;-75
2022/06/25 11:54:16;;;;;;;1999.90;999.90;;;25.30;95.50;;;;;;5087440;28;20371;-76
2022/06/25 11:56:54;;;;;;;1999.90;999.90;;;25.00;96.50;;;;;;5072187;28;20512;-76
2022/06/25 11:59:25;;;;;;;1999.90;999.90;;;24.70;97.70;;;;;;5090056;28;20519;-75
2022/06/25 12:01:50;;;;;;;1999.90;999.90;;;24.50;98.50;;;;;;5089209;28;20044;-75
2022/06/25 12:04:16;;;;;;;1999.90;999.90;;;24.30;98.20;;;;;;5073532;28;20036;-75
2022/06/25 12:06:42;;;;;;;1999.90;999.90;;;24.10;99.30;;;;;;5082996;28;20047;-75
2022/06/25 12:09:08;;;;;;;1999.90;999.90;;;23.90;99.40;;;;;;5059527;28;20577;-75